Time,TemperatureF,DewpointF,PressureIn,WindDirection,WindDirectionDegrees,WindSpeedMPH,WindSpeedGustMPH,Humidity,HourlyPrecipIn,Conditions,Clouds,dailyrainin,SoftwareType,DateUTC
2013-05-22 00:00:00,71.1,66.0,29.96,SSE,158,0.0,0.0,84,0.00,,,0.00,WUHU216HW,2013-05-22 04:00:00,
2013-05-22 00:01:00,71.1,66.0,29.96,SSE,158,0.0,0.0,84,0.00,,,0.00,WUHU216HW,2013-05-22 04:01:00,
2013-05-22 00:06:00,71.1,66.0,29.96,SSE,158,0.0,0.0,84,0.00,,,0.00,WUHU216HW,2013-05-22 04:06:00,
2013-05-22 00:30:00,71.1,66.0,29.96,SSE,158,0.2,0.2,84,0.00,,,0.00,WUHU216HW,2013-05-22 04:30:00,
2013-05-22 00:35:00,71.1,66.0,29.96,SSE,158,0.2,0.2,84,0.00,,,0.00,WUHU216HW,2013-05-22 04:35:00,
2013-05-22 01:00:00,70.9,66.2,29.96,ESE,113,1.1,1.1,85,0.00,,,0.00,WUHU216HW,2013-05-22 05:00:00,
2013-05-22 01:05:00,70.9,66.2,29.96,ESE,113,1.1,1.1,85,0.00,,,0.00,WUHU216HW,2013-05-22 05:05:00,
2013-05-22 01:30:00,70.9,66.5,29.96,WNW,293,1.1,1.1,86,0.00,,,0.00,WUHU216HW,2013-05-22 05:30:00,
2013-05-22 01:35:00,70.9,66.5,29.96,WNW,293,1.1,1.1,86,0.00,,,0.00,WUHU216HW,2013-05-22 05:35:00,
2013-05-22 02:00:00,70.9,66.5,29.95,SE,135,1.3,1.3,86,0.00,,,0.00,WUHU216HW,2013-05-22 06:00:00,
2013-05-22 02:05:00,70.9,66.5,29.95,SE,135,1.3,1.3,86,0.00,,,0.00,WUHU216HW,2013-05-22 06:05:00,
2013-05-22 02:30:00,70.9,66.5,29.95,SE,135,0.4,0.4,86,0.00,,,0.00,WUHU216HW,2013-05-22 06:30:00,
2013-05-22 02:35:00,70.9,66.5,29.95,SE,135,0.4,0.4,86,0.00,,,0.00,WUHU216HW,2013-05-22 06:35:00,
2013-05-22 03:00:00,70.9,66.5,29.95,South,180,2.0,2.0,86,0.00,,,0.00,WUHU216HW,2013-05-22 07:00:00,
2013-05-22 03:30:00,70.9,66.5,29.95,SSE,158,0.0,0.0,86,0.00,,,0.00,WUHU216HW,2013-05-22 07:30:00,
2013-05-22 03:35:00,70.9,66.5,29.95,SSE,158,0.0,0.0,86,0.00,,,0.00,WUHU216HW,2013-05-22 07:35:00,
2013-05-22 04:00:00,70.7,66.3,29.94,West,270,0.4,0.4,86,0.00,,,0.00,WUHU216HW,2013-05-22 08:00:00,
2013-05-22 04:05:00,70.7,66.3,29.94,West,270,0.4,0.4,86,0.00,,,0.00,WUHU216HW,2013-05-22 08:05:00,
2013-05-22 04:30:00,70.6,66.2,29.94,SSW,203,0.4,0.4,86,0.00,,,0.00,WUHU216HW,2013-05-22 08:30:00,
2013-05-22 04:35:00,70.6,66.2,29.94,SSW,203,0.4,0.4,86,0.00,,,0.00,WUHU216HW,2013-05-22 08:35:00,
2013-05-22 05:00:00,70.4,66.0,29.93,SW,225,0.7,0.7,86,0.00,,,0.00,WUHU216HW,2013-05-22 09:00:00,
2013-05-22 05:05:00,70.4,66.0,29.93,SW,225,0.7,0.7,86,0.00,,,0.00,WUHU216HW,2013-05-22 09:05:00,
2013-05-22 05:30:00,70.2,65.8,29.93,SW,225,0.7,0.7,86,0.00,,,0.00,WUHU216HW,2013-05-22 09:30:00,
2013-05-22 05:35:00,70.2,65.8,29.93,SW,225,0.7,0.7,86,0.00,,,0.00,WUHU216HW,2013-05-22 09:35:00,
2013-05-22 06:00:00,69.8,65.4,29.93,SSW,203,1.8,1.8,86,0.00,,,0.00,WUHU216HW,2013-05-22 10:00:00,
2013-05-22 06:05:00,69.8,65.4,29.93,SSW,203,1.8,1.8,86,0.00,,,0.00,WUHU216HW,2013-05-22 10:05:00,
2013-05-22 06:30:00,69.7,65.3,29.95,SSE,158,0.0,0.0,86,0.00,,,0.00,WUHU216HW,2013-05-22 10:30:00,
2013-05-22 06:35:00,69.7,65.3,29.95,SSE,158,0.0,0.0,86,0.00,,,0.00,WUHU216HW,2013-05-22 10:35:00,
2013-05-22 07:00:00,69.7,65.6,29.96,West,270,0.4,0.4,87,0.00,,,0.00,WUHU216HW,2013-05-22 11:00:00,
2013-05-22 07:05:00,69.7,65.6,29.96,West,270,0.4,0.4,87,0.00,,,0.00,WUHU216HW,2013-05-22 11:05:00,
2013-05-22 07:30:00,69.8,65.4,29.96,SSE,158,1.1,1.1,86,0.00,,,0.00,WUHU216HW,2013-05-22 11:30:00,
2013-05-22 07:35:00,69.8,65.4,29.96,SSE,158,1.1,1.1,86,0.00,,,0.00,WUHU216HW,2013-05-22 11:35:00,
2013-05-22 08:00:00,69.8,65.1,29.97,WSW,248,0.0,0.0,85,0.00,,,0.00,WUHU216HW,2013-05-22 12:00:00,
2013-05-22 08:05:00,69.8,65.1,29.97,WSW,248,0.0,0.0,85,0.00,,,0.00,WUHU216HW,2013-05-22 12:05:00,
2013-05-22 08:30:00,70.4,65.6,29.97,SSW,203,1.3,1.3,85,0.00,,,0.00,WUHU216HW,2013-05-22 12:30:00,
2013-05-22 08:35:00,70.4,65.6,29.97,SSW,203,1.3,1.3,85,0.00,,,0.00,WUHU216HW,2013-05-22 12:35:00,
2013-05-22 09:00:00,71.1,66.0,29.98,SSE,158,0.0,0.0,84,0.00,,,0.00,WUHU216HW,2013-05-22 13:00:00,
2013-05-22 09:05:00,71.1,66.0,29.98,SSE,158,0.0,0.0,84,0.00,,,0.00,WUHU216HW,2013-05-22 13:05:00,
2013-05-22 09:30:00,72.4,66.9,29.98,West,270,2.5,2.5,83,0.00,,,0.00,WUHU216HW,2013-05-22 13:30:00,
2013-05-22 09:35:00,72.4,66.9,29.98,West,270,2.5,2.5,83,0.00,,,0.00,WUHU216HW,2013-05-22 13:35:00,
2013-05-22 10:00:00,73.1,67.3,29.98,SSE,158,1.3,1.3,82,0.00,,,0.00,WUHU216HW,2013-05-22 14:00:00,
2013-05-22 10:05:00,73.1,67.3,29.98,SSE,158,1.3,1.3,82,0.00,,,0.00,WUHU216HW,2013-05-22 14:05:00,
2013-05-22 10:30:00,73.8,67.7,29.98,East,90,1.1,1.1,81,0.00,,,0.00,WUHU216HW,2013-05-22 14:30:00,
2013-05-22 10:35:00,73.8,67.7,29.98,East,90,1.1,1.1,81,0.00,,,0.00,WUHU216HW,2013-05-22 14:35:00,
2013-05-22 10:39:00,73.8,67.7,29.98,East,90,1.1,1.1,81,0.00,,,0.00,WUHU216HW,2013-05-22 14:39:00,
2013-05-22 11:00:00,75.1,67.4,29.98,SW,225,1.1,1.1,77,0.00,,,0.00,WUHU216HW,2013-05-22 15:00:00,
2013-05-22 11:05:00,75.1,67.4,29.98,SW,225,1.1,1.1,77,0.00,,,0.00,WUHU216HW,2013-05-22 15:05:00,
2013-05-22 11:30:00,76.7,68.1,29.99,SSW,203,0.2,0.2,75,0.00,,,0.00,WUHU216HW,2013-05-22 15:30:00,
2013-05-22 11:35:00,76.7,68.1,29.99,SSW,203,0.2,0.2,75,0.00,,,0.00,WUHU216HW,2013-05-22 15:35:00,
2013-05-22 12:00:00,76.9,68.0,29.98,SSE,158,1.6,1.6,74,0.00,,,0.00,WUHU216HW,2013-05-22 16:00:00,
2013-05-22 12:05:00,76.9,68.0,29.98,SSE,158,1.6,1.6,74,0.00,,,0.00,WUHU216HW,2013-05-22 16:05:00,
2013-05-22 12:30:00,77.9,68.6,29.97,West,270,1.6,1.6,73,0.00,,,0.00,WUHU216HW,2013-05-22 16:30:00,
2013-05-22 12:35:00,77.9,68.6,29.97,West,270,1.6,1.6,73,0.00,,,0.00,WUHU216HW,2013-05-22 16:35:00,
2013-05-22 13:00:00,78.5,68.7,29.96,SE,135,0.9,0.9,72,0.00,,,0.00,WUHU216HW,2013-05-22 17:00:00,
2013-05-22 13:05:00,78.5,68.7,29.96,SE,135,0.9,0.9,72,0.00,,,0.00,WUHU216HW,2013-05-22 17:05:00,
2013-05-22 13:30:00,80.6,70.0,29.95,SSE,158,1.1,1.1,70,0.00,,,0.00,WUHU216HW,2013-05-22 17:30:00,
2013-05-22 13:35:00,80.6,70.0,29.95,SSE,158,1.1,1.1,70,0.00,,,0.00,WUHU216HW,2013-05-22 17:35:00,
2013-05-22 14:00:00,82.4,70.7,29.93,SSW,203,1.6,1.6,68,0.00,,,0.00,WUHU216HW,2013-05-22 18:00:00,
2013-05-22 14:05:00,82.4,70.7,29.93,SSW,203,1.6,1.6,68,0.00,,,0.00,WUHU216HW,2013-05-22 18:05:00,
2013-05-22 14:30:00,83.9,71.7,29.92,NNW,338,1.1,1.1,67,0.00,,,0.00,WUHU216HW,2013-05-22 18:30:00,
2013-05-22 14:35:00,83.9,71.7,29.92,NNW,338,1.1,1.1,67,0.00,,,0.00,WUHU216HW,2013-05-22 18:35:00,
2013-05-22 15:00:00,85.9,71.8,29.91,SE,135,0.9,0.9,63,0.00,,,0.00,WUHU216HW,2013-05-22 19:00:00,
2013-05-22 15:05:00,85.9,71.8,29.91,SE,135,0.9,0.9,63,0.00,,,0.00,WUHU216HW,2013-05-22 19:05:00,
2013-05-22 15:30:00,86.2,71.2,29.91,ESE,113,0.0,0.0,61,0.00,,,0.00,WUHU216HW,2013-05-22 19:30:00,
2013-05-22 15:35:00,86.2,71.2,29.91,ESE,113,0.0,0.0,61,0.00,,,0.00,WUHU216HW,2013-05-22 19:35:00,
2013-05-22 16:00:00,85.7,70.2,29.90,SSW,203,0.7,0.7,60,0.00,,,0.00,WUHU216HW,2013-05-22 20:00:00,
2013-05-22 16:05:00,85.7,70.2,29.90,SSW,203,0.7,0.7,60,0.00,,,0.00,WUHU216HW,2013-05-22 20:05:00,
2013-05-22 16:30:00,85.9,69.8,29.89,ESE,113,1.6,1.6,59,0.00,,,0.00,WUHU216HW,2013-05-22 20:30:00,
2013-05-22 16:35:00,85.9,69.8,29.89,ESE,113,1.6,1.6,59,0.00,,,0.00,WUHU216HW,2013-05-22 20:35:00,
2013-05-22 17:00:00,86.0,69.0,29.87,SE,135,1.8,1.8,57,0.00,,,0.00,WUHU216HW,2013-05-22 21:00:00,
2013-05-22 17:05:00,86.0,69.0,29.87,SE,135,1.8,1.8,57,0.00,,,0.00,WUHU216HW,2013-05-22 21:05:00,
2013-05-22 17:30:00,86.0,68.5,29.86,SSW,203,2.2,2.2,56,0.00,,,0.00,WUHU216HW,2013-05-22 21:30:00,
2013-05-22 17:35:00,86.0,68.5,29.86,SSW,203,2.2,2.2,56,0.00,,,0.00,WUHU216HW,2013-05-22 21:35:00,
2013-05-22 18:00:00,84.1,68.2,29.87,ENE,68,0.7,0.7,59,0.00,,,0.00,WUHU216HW,2013-05-22 22:00:00,
2013-05-22 18:05:00,84.1,68.2,29.87,ENE,68,0.7,0.7,59,0.00,,,0.00,WUHU216HW,2013-05-22 22:05:00,
2013-05-22 18:30:00,79.6,68.5,29.88,NE,45,0.4,0.4,69,0.02,,,0.00,WUHU216HW,2013-05-22 22:30:00,
2013-05-22 18:35:00,79.6,68.5,29.88,NE,45,0.4,0.4,69,0.02,,,0.00,WUHU216HW,2013-05-22 22:35:00,
2013-05-22 19:00:00,78.5,69.8,29.88,North,0,0.0,0.0,75,0.02,,,0.02,WUHU216HW,2013-05-22 23:00:00,
2013-05-22 19:05:00,78.5,69.8,29.88,North,0,0.0,0.0,75,0.02,,,0.02,WUHU216HW,2013-05-22 23:05:00,
2013-05-22 19:30:00,77.8,69.6,29.87,SSE,158,0.0,0.0,76,0.00,,,0.02,WUHU216HW,2013-05-22 23:30:00,
2013-05-22 19:35:00,77.8,69.6,29.87,SSE,158,0.0,0.0,76,0.00,,,0.02,WUHU216HW,2013-05-22 23:35:00,
2013-05-22 19:59:00,77.0,68.5,29.88,SSE,158,0.9,0.9,75,0.00,,,0.02,WUHU216HW,2013-05-22 23:59:00,
2013-05-22 20:04:00,77.0,68.5,29.88,SSE,158,0.9,0.9,75,0.00,,,0.02,WUHU216HW,2013-05-23 00:04:00,
2013-05-22 20:30:00,76.7,67.8,29.90,SE,135,0.4,0.4,74,0.00,,,0.02,WUHU216HW,2013-05-23 00:30:00,
2013-05-22 20:35:00,76.7,67.8,29.90,SE,135,0.4,0.4,74,0.00,,,0.02,WUHU216HW,2013-05-23 00:35:00,
2013-05-22 20:39:00,76.7,67.8,29.90,SE,135,0.4,0.4,74,0.00,,,0.02,WUHU216HW,2013-05-23 00:39:00,
2013-05-22 20:59:00,76.1,66.9,29.90,South,180,0.2,0.2,73,0.00,,,0.02,WUHU216HW,2013-05-23 00:59:00,
2013-05-22 21:05:00,76.1,66.9,29.90,South,180,0.2,0.2,73,0.00,,,0.02,WUHU216HW,2013-05-23 01:05:00,
2013-05-22 21:30:00,75.2,66.8,29.91,SE,135,0.0,0.0,75,0.00,,,0.02,WUHU216HW,2013-05-23 01:30:00,
2013-05-22 21:35:00,75.2,66.8,29.91,SE,135,0.0,0.0,75,0.00,,,0.02,WUHU216HW,2013-05-23 01:35:00,
2013-05-22 21:59:00,74.3,66.7,29.92,SW,225,0.2,0.2,77,0.00,,,0.02,WUHU216HW,2013-05-23 01:59:00,
2013-05-22 22:04:00,74.3,66.7,29.92,SW,225,0.2,0.2,77,0.00,,,0.02,WUHU216HW,2013-05-23 02:04:00,
2013-05-22 22:30:00,73.6,66.4,29.93,SSE,158,0.0,0.0,78,0.00,,,0.02,WUHU216HW,2013-05-23 02:30:00,
2013-05-22 22:35:00,73.6,66.4,29.93,SSE,158,0.0,0.0,78,0.00,,,0.02,WUHU216HW,2013-05-23 02:35:00,
2013-05-22 22:59:00,73.1,66.6,29.92,East,90,0.0,0.0,80,0.00,,,0.02,WUHU216HW,2013-05-23 02:59:00,
2013-05-22 23:05:00,73.1,66.6,29.92,East,90,0.0,0.0,80,0.00,,,0.02,WUHU216HW,2013-05-23 03:05:00,
2013-05-22 23:30:00,72.5,66.1,29.92,SE,135,0.4,0.4,80,0.00,,,0.02,WUHU216HW,2013-05-23 03:30:00,
2013-05-22 23:35:00,72.5,66.1,29.92,SE,135,0.4,0.4,80,0.00,,,0.02,WUHU216HW,2013-05-23 03:35:00,
2013-05-22 23:59:00,72.4,65.9,29.91,SE,135,0.0,0.0,80,0.00,,,0.00,WUHU216HW,2013-05-23 03:59:00,